Time;durP1;ratioP1;P1;durP2;ratioP2;P2;SDS_P1;SDS_P2;PMS_P1;PMS_P2;Temp;Humidity;BMP_temperature;BMP_pressure;BME280_temperature;BME280_humidity;BME280_pressure;Samples;Min_cycle;Max_cycle;Signal;HPM_P1;HPM_P2
2021/03/28 00:00:26;;;;;;;4.15;2.08;;;9.60;55.10;;;;;;6244907;23;20008;-76
2021/03/28 00:03:02;;;;;;;4.63;1.50;;;9.60;54.90;;;;;;6245303;23;20438;-74
2021/03/28 00:05:32;;;;;;;5.68;1.50;;;9.50;55.10;;;;;;6244306;23;20008;-82
2021/03/28 00:08:15;;;;;;;4.68;1.75;;;9.50;55.10;;;;;;6244339;23;20015;-74
2021/03/28 00:10:45;;;;;;;7.65;2.10;;;9.50;55.20;;;;;;6243469;23;20004;-76
2021/03/28 00:13:26;;;;;;;4.88;1.63;;;9.60;55.10;;;;;;6244377;23;20007;-74
2021/03/28 00:15:58;;;;;;;6.83;2.00;;;9.60;54.90;;;;;;6243599;23;20020;-73
2021/03/28 00:19:01;;;;;;;11.23;1.70;;;9.50;55.00;;;;;;6244190;23;20327;-73
2021/03/28 00:21:46;;;;;;;4.07;1.38;;;9.50;55.30;;;;;;6153055;23;20025;-73
2021/03/28 00:24:20;;;;;;;5.47;1.52;;;9.40;55.50;;;;;;6234613;23;20308;-74
2021/03/28 00:26:59;;;;;;;5.55;1.70;;;9.40;55.50;;;;;;6243755;23;20016;-74
2021/03/28 00:29:27;;;;;;;6.32;1.17;;;9.40;55.70;;;;;;6243275;23;20019;-74
2021/03/28 00:32:20;;;;;;;4.78;1.17;;;9.40;55.80;;;;;;6242692;23;20004;-73
2021/03/28 00:34:51;;;;;;;4.28;1.33;;;9.50;55.80;;;;;;6245085;23;20043;-73
2021/03/28 00:37:22;;;;;;;4.60;1.48;;;9.50;55.90;;;;;;6244609;23;20087;-73
2021/03/28 00:40:12;;;;;;;4.85;1.40;;;9.50;56.00;;;;;;6243279;23;20007;-73
2021/03/28 00:42:43;;;;;;;6.95;1.70;;;9.40;56.20;;;;;;6242567;23;20077;-73
2021/03/28 00:45:24;;;;;;;5.73;1.40;;;9.40;56.20;;;;;;6245156;23;20000;-73
2021/03/28 00:48:17;;;;;;;8.93;1.40;;;9.50;56.10;;;;;;6243109;23;20572;-74
2021/03/28 00:50:58;;;;;;;5.35;1.45;;;9.50;56.10;;;;;;6230486;23;20007;-74
2021/03/28 00:53:45;;;;;;;4.10;1.33;;;9.40;56.20;;;;;;6244889;23;20071;-73
2021/03/28 00:56:23;;;;;;;3.55;1.13;;;9.50;56.30;;;;;;6243125;22;19999;-73
2021/03/28 00:59:02;;;;;;;7.22;1.88;;;9.50;56.40;;;;;;6244376;23;20000;-74
2021/03/28 01:01:52;;;;;;;6.80;1.75;;;9.40;56.30;;;;;;6244996;23;20008;-73
2021/03/28 01:04:55;;;;;;;4.65;1.42;;;9.40;56.40;;;;;;6243198;23;20050;-73
2021/03/28 01:07:33;;;;;;;4.75;1.20;;;9.40;56.20;;;;;;6243347;23;20008;-73
2021/03/28 01:10:17;;;;;;;8.27;1.40;;;9.40;56.30;;;;;;6244674;23;20000;-74
2021/03/28 01:12:58;;;;;;;7.72;1.40;;;9.40;56.30;;;;;;6242307;22;20016;-74
2021/03/28 01:15:23;;;;;;;5.00;1.42;;;9.40;56.30;;;;;;6243144;22;20542;-73
2021/03/28 01:18:30;;;;;;;9.63;1.77;;;9.40;56.30;;;;;;6242466;22;20008;-74
2021/03/28 01:21:20;;;;;;;5.78;1.55;;;9.40;56.30;;;;;;6241562;23;20016;-73
2021/03/28 01:24:07;;;;;;;7.57;1.63;;;9.40;56.30;;;;;;6245525;23;20071;-73
2021/03/28 01:26:41;;;;;;;8.27;1.95;;;9.40;56.50;;;;;;6245596;23;20034;-77
2021/03/28 01:29:28;;;;;;;5.13;1.40;;;9.40;56.40;;;;;;6245317;23;20046;-73
2021/03/28 01:31:59;;;;;;;6.57;1.50;;;9.40;56.20;;;;;;6244280;23;20008;-74
2021/03/28 01:34:55;;;;;;;7.55;1.58;;;9.40;56.00;;;;;;6243490;23;20008;-73
2021/03/28 01:37:32;;;;;;;8.50;2.03;;;9.50;56.00;;;;;;6244878;23;20000;-74
2021/03/28 01:40:26;;;;;;;6.57;1.35;;;9.40;56.00;;;;;;6244549;23;19996;-74
2021/03/28 01:43:23;;;;;;;8.77;1.70;;;9.40;56.00;;;;;;6221293;23;20081;-74
2021/03/28 01:46:39;;;;;;;6.32;1.63;;;9.40;56.00;;;;;;6243987;23;20007;-73
2021/03/28 01:49:42;;;;;;;10.80;2.25;;;9.40;56.10;;;;;;6127271;23;20012;-73
2021/03/28 01:52:28;;;;;;;6.55;1.77;;;9.40;56.30;;;;;;6152098;23;20064;-73
2021/03/28 01:54:59;;;;;;;6.38;1.70;;;9.40;56.30;;;;;;6151473;23;20385;-73
2021/03/28 01:57:37;;;;;;;6.47;1.50;;;9.30;56.30;;;;;;6151875;23;20030;-74
2021/03/28 02:00:25;;;;;;;5.43;1.77;;;9.30;56.30;;;;;;6152014;23;20021;-74
2021/03/28 02:02:56;;;;;;;6.88;1.50;;;9.30;56.60;;;;;;6127191;23;20445;-73
2021/03/28 02:05:28;;;;;;;8.68;2.03;;;9.20;56.70;;;;;;6152499;23;20005;-74
2021/03/28 02:07:56;;;;;;;4.90;1.13;;;9.20;57.10;;;;;;6151359;23;20014;-74
2021/03/28 02:10:28;;;;;;;4.72;1.02;;;9.10;57.30;;;;;;6151873;23;20001;-73
2021/03/28 02:13:22;;;;;;;3.90;1.20;;;9.10;57.40;;;;;;6151041;23;20020;-73
2021/03/28 02:16:02;;;;;;;4.30;1.23;;;9.00;58.10;;;;;;6110356;23;20026;-73
2021/03/28 02:18:51;;;;;;;8.15;1.50;;;9.10;58.30;;;;;;6122694;23;20012;-73
2021/03/28 02:21:53;;;;;;;6.88;1.30;;;9.20;57.80;;;;;;6212809;23;20096;-73
2021/03/28 02:24:38;;;;;;;6.80;1.60;;;9.20;57.80;;;;;;6188429;23;20036;-73
2021/03/28 02:27:20;;;;;;;6.32;1.52;;;9.20;57.50;;;;;;6188032;23;20372;-73
2021/03/28 02:29:46;;;;;;;10.05;1.55;;;9.20;57.40;;;;;;6187891;23;20032;-73
2021/03/28 02:32:53;;;;;;;7.20;1.42;;;9.20;57.30;;;;;;6215189;23;20420;-73
2021/03/28 02:35:47;;;;;;;4.72;1.60;;;9.20;57.80;;;;;;6215374;23;19996;-73
2021/03/28 02:38:43;;;;;;;4.75;1.38;;;9.00;57.50;;;;;;6216583;23;20439;-73
2021/03/28 02:41:22;;;;;;;3.92;1.38;;;9.10;57.70;;;;;;6215681;23;20008;-73
2021/03/28 02:43:53;;;;;;;7.85;1.60;;;9.10;57.40;;;;;;6189442;23;20001;-73
2021/03/28 02:46:24;;;;;;;8.18;1.60;;;9.20;57.40;;;;;;6216708;23;20033;-74
2021/03/28 02:49:19;;;;;;;6.55;1.50;;;9.10;57.60;;;;;;6214359;23;20013;-74
2021/03/28 02:52:10;;;;;;;6.55;1.20;;;9.00;57.90;;;;;;6214675;23;20004;-74
2021/03/28 02:54:50;;;;;;;10.20;1.70;;;8.90;58.10;;;;;;6215371;23;20005;-73
2021/03/28 02:57:45;;;;;;;8.82;2.08;;;8.90;58.10;;;;;;6190439;23;20516;-73
2021/03/28 03:00:15;;;;;;;8.00;2.00;;;9.00;58.20;;;;;;6129981;23;20317;-73
2021/03/28 03:03:14;;;;;;;2.97;1.23;;;9.10;58.20;;;;;;6214679;23;20055;-78
2021/03/28 03:05:48;;;;;;;5.88;1.90;;;9.10;58.10;;;;;;6215883;23;19996;-79
2021/03/28 03:08:36;;;;;;;7.45;1.45;;;9.20;57.90;;;;;;6215239;23;20009;-73
2021/03/28 03:11:21;;;;;;;6.32;1.90;;;9.20;57.60;;;;;;6214139;23;20008;-73
2021/03/28 03:13:54;;;;;;;5.70;1.27;;;9.20;57.60;;;;;;6189668;23;20008;-74
2021/03/28 03:16:49;;;;;;;5.05;1.42;;;9.10;57.40;;;;;;6224418;23;20020;-73
2021/03/28 03:19:42;;;;;;;7.18;1.80;;;9.10;57.20;;;;;;6193962;23;20012;-73
2021/03/28 03:22:57;;;;;;;5.88;1.55;;;9.00;57.10;;;;;;6245496;23;20430;-73
2021/03/28 03:26:07;;;;;;;5.55;1.25;;;9.10;57.00;;;;;;6245746;23;20020;-73
2021/03/28 03:28:56;;;;;;;7.32;1.02;;;9.00;57.00;;;;;;6219119;23;20035;-73
2021/03/28 03:31:49;;;;;;;7.95;1.60;;;9.00;57.40;;;;;;6245772;23;20004;-73
2021/03/28 03:35:00;;;;;;;6.47;1.33;;;8.90;57.80;;;;;;6245252;23;20011;-73
2021/03/28 03:37:53;;;;;;;5.28;1.20;;;8.90;59.20;;;;;;6174806;23;20451;-73
2021/03/28 03:40:40;;;;;;;5.15;1.58;;;8.90;58.80;;;;;;6245089;23;20001;-74
2021/03/28 03:43:43;;;;;;;7.95;1.73;;;8.90;58.80;;;;;;6244639;23;20015;-73
2021/03/28 03:46:35;;;;;;;8.88;1.73;;;9.00;58.40;;;;;;6245002;23;20000;-73
2021/03/28 03:49:45;;;;;;;6.63;1.42;;;9.00;58.10;;;;;;6230281;23;20004;-73
2021/03/28 03:52:39;;;;;;;6.15;1.65;;;8.90;58.20;;;;;;6239070;23;20008;-74
2021/03/28 03:55:20;;;;;;;5.85;1.67;;;9.00;57.70;;;;;;6244538;22;20004;-73
2021/03/28 03:57:54;;;;;;;4.50;1.10;;;9.00;57.60;;;;;;6245663;23;20008;-73
2021/03/28 04:00:31;;;;;;;4.82;1.60;;;9.00;57.50;;;;;;6244724;23;20031;-73
2021/03/28 04:03:09;;;;;;;8.38;1.73;;;9.00;57.70;;;;;;6243811;23;20015;-73
2021/03/28 04:05:53;;;;;;;5.28;1.23;;;8.90;57.90;;;;;;6246346;23;20067;-73
2021/03/28 04:08:33;;;;;;;5.03;1.73;;;8.80;57.90;;;;;;6244529;23;20008;-73
2021/03/28 04:11:32;;;;;;;7.00;1.58;;;8.70;58.00;;;;;;6243832;23;20008;-73
2021/03/28 04:14:43;;;;;;;4.78;1.40;;;8.70;58.10;;;;;;6245550;23;20071;-73
2021/03/28 04:17:26;;;;;;;6.13;1.75;;;8.50;58.50;;;;;;6099251;23;20100;-73
2021/03/28 04:20:30;;;;;;;7.00;1.35;;;8.50;58.80;;;;;;6205998;23;20092;-73
2021/03/28 04:23:31;;;;;;;4.85;1.40;;;8.40;59.00;;;;;;6146812;23;20088;-73
2021/03/28 04:26:17;;;;;;;6.53;1.50;;;8.40;59.10;;;;;;6213262;23;20000;-73
2021/03/28 04:29:04;;;;;;;7.78;1.70;;;8.40;59.10;;;;;;6215309;23;20284;-79
2021/03/28 04:32:04;;;;;;;5.80;1.52;;;8.30;59.10;;;;;;6188964;23;20032;-73
2021/03/28 04:34:55;;;;;;;4.57;1.25;;;8.30;59.30;;;;;;6181543;23;20001;-73
2021/03/28 04:37:25;;;;;;;5.68;1.30;;;8.30;59.50;;;;;;6216120;23;20061;-73
2021/03/28 04:40:21;;;;;;;5.45;1.15;;;8.20;59.50;;;;;;6215285;23;20071;-74
2021/03/28 04:43:04;;;;;;;7.30;1.33;;;8.10;59.60;;;;;;6214657;23;20001;-74
2021/03/28 04:45:54;;;;;;;8.67;1.50;;;8.10;60.00;;;;;;6215891;23;20012;-73
2021/03/28 04:48:59;;;;;;;3.45;1.27;;;8.00;60.20;;;;;;6214152;23;20382;-73
2021/03/28 04:51:29;;;;;;;5.63;1.40;;;8.00;60.30;;;;;;6144415;23;20033;-73
2021/03/28 04:54:22;;;;;;;5.85;1.00;;;8.00;60.20;;;;;;6207293;23;19996;-73
2021/03/28 04:57:29;;;;;;;5.37;1.30;;;8.00;60.30;;;;;;6213360;23;20080;-74
2021/03/28 05:00:34;;;;;;;2.47;1.00;;;8.00;60.30;;;;;;6179899;23;20008;-73
2021/03/28 05:03:12;;;;;;;7.13;1.20;;;8.00;60.40;;;;;;6214702;23;20048;-73
2021/03/28 05:05:53;;;;;;;4.53;1.20;;;7.90;60.50;;;;;;6215562;23;20001;-73
2021/03/28 05:08:34;;;;;;;4.00;1.00;;;7.80;60.60;;;;;;6188538;23;20091;-74
2021/03/28 05:11:37;;;;;;;4.37;1.07;;;7.80;61.00;;;;;;6212857;23;20087;-73
2021/03/28 05:14:22;;;;;;;3.35;0.90;;;7.80;61.10;;;;;;6212918;23;19997;-73
2021/03/28 05:17:14;;;;;;;6.73;1.80;;;7.70;61.30;;;;;;6241863;23;20098;-77
2021/03/28 05:20:11;;;;;;;3.03;1.00;;;7.70;61.40;;;;;;6219246;23;20004;-73
2021/03/28 05:22:55;;;;;;;4.93;1.00;;;7.70;61.40;;;;;;6218388;23;20000;-73
2021/03/28 05:26:08;;;;;;;3.87;1.00;;;7.70;61.40;;;;;;6218533;23;20004;-73
2021/03/28 05:28:46;;;;;;;2.70;1.00;;;7.70;61.90;;;;;;6128232;23;20014;-73
2021/03/28 05:31:25;;;;;;;5.30;0.83;;;7.60;61.90;;;;;;6245234;23;20008;-73
2021/03/28 05:34:09;;;;;;;5.70;0.90;;;7.60;61.90;;;;;;6218297;23;20090;-74
2021/03/28 05:36:49;;;;;;;4.87;1.10;;;7.50;61.90;;;;;;6245491;23;20018;-73
2021/03/28 05:39:30;;;;;;;6.07;1.13;;;7.60;62.10;;;;;;6218719;23;20008;-73
2021/03/28 05:42:17;;;;;;;5.37;1.33;;;7.50;62.30;;;;;;6244576;23;20423;-73
2021/03/28 05:45:16;;;;;;;6.67;2.20;;;7.50;62.30;;;;;;6218771;23;20019;-73
2021/03/28 05:48:00;;;;;;;3.07;1.20;;;7.50;62.70;;;;;;6218569;23;20040;-73
2021/03/28 05:50:32;;;;;;;3.77;1.23;;;7.40;62.70;;;;;;6217791;23;20366;-73
2021/03/28 05:53:26;;;;;;;4.50;0.90;;;7.40;62.80;;;;;;6217865;23;20414;-73
2021/03/28 05:56:25;;;;;;;3.20;1.00;;;7.40;63.10;;;;;;6218300;23;20004;-73
2021/03/28 05:59:12;;;;;;;5.07;1.10;;;7.40;63.30;;;;;;6245535;23;20054;-74
2021/03/28 06:01:53;;;;;;;2.13;0.93;;;7.40;63.20;;;;;;6245637;23;20043;-73
2021/03/28 06:04:34;;;;;;;7.87;1.20;;;7.40;63.30;;;;;;6245160;23;20078;-73
2021/03/28 06:07:37;;;;;;;7.17;1.30;;;7.30;63.40;;;;;;6218149;23;20383;-74
2021/03/28 06:10:40;;;;;;;5.53;1.07;;;7.30;63.80;;;;;;6217988;23;19996;-73
2021/03/28 06:13:35;;;;;;;6.57;1.20;;;7.20;63.90;;;;;;6214290;23;19997;-73
2021/03/28 06:16:28;;;;;;;5.17;1.27;;;7.20;64.30;;;;;;6212996;23;20348;-73
2021/03/28 06:19:22;;;;;;;5.13;1.23;;;7.20;64.60;;;;;;6244570;23;20004;-73
2021/03/28 06:22:06;;;;;;;4.37;1.03;;;7.30;64.20;;;;;;6244064;23;20004;-73
2021/03/28 06:25:01;;;;;;;3.20;1.00;;;7.40;64.20;;;;;;6245017;23;20003;-73
2021/03/28 06:27:38;;;;;;;9.07;1.30;;;7.40;63.70;;;;;;6157924;23;20383;-73
2021/03/28 06:30:03;;;;;;;7.33;1.40;;;7.50;63.60;;;;;;6217968;23;20012;-73
2021/03/28 06:33:07;;;;;;;3.30;1.10;;;7.50;63.40;;;;;;6218550;23;20339;-73
2021/03/28 06:35:55;;;;;;;6.93;1.50;;;7.60;63.80;;;;;;6245330;23;20423;-74
2021/03/28 06:38:39;;;;;;;8.57;1.63;;;7.60;63.60;;;;;;6218541;23;20087;-74
2021/03/28 06:41:15;;;;;;;4.83;1.30;;;7.70;63.50;;;;;;6243237;23;20363;-73
2021/03/28 06:44:02;;;;;;;4.10;1.70;;;7.70;64.10;;;;;;6243570;23;20018;-73
2021/03/28 06:46:53;;;;;;;6.13;1.33;;;7.70;63.00;;;;;;6245395;23;20497;-74
2021/03/28 06:49:27;;;;;;;3.93;1.30;;;7.80;63.00;;;;;;6243753;23;20038;-73
2021/03/28 06:52:05;;;;;;;6.87;1.37;;;7.80;62.90;;;;;;6244768;23;19997;-73
2021/03/28 06:54:48;;;;;;;7.47;1.33;;;7.80;62.90;;;;;;6218060;23;20007;-73
2021/03/28 06:57:57;;;;;;;6.13;1.33;;;7.90;62.80;;;;;;6242927;23;20039;-73
2021/03/28 07:00:37;;;;;;;7.63;1.33;;;7.90;62.50;;;;;;6243907;23;20055;-73
2021/03/28 07:03:41;;;;;;;7.53;1.23;;;8.00;62.90;;;;;;6217688;23;20004;-73
2021/03/28 07:06:28;;;;;;;5.20;1.20;;;8.10;62.60;;;;;;6244523;23;20028;-73
2021/03/28 07:09:36;;;;;;;3.87;1.50;;;8.10;62.70;;;;;;6217413;23;20431;-74
2021/03/28 07:12:17;;;;;;;7.43;1.47;;;8.20;62.60;;;;;;6237414;23;20012;-74
2021/03/28 07:15:01;;;;;;;6.77;1.43;;;8.30;61.70;;;;;;6234403;23;20047;-73
2021/03/28 07:17:54;;;;;;;5.13;1.60;;;8.30;61.80;;;;;;6218193;23;20008;-73
2021/03/28 07:20:44;;;;;;;5.30;1.30;;;8.30;62.00;;;;;;6246402;23;20011;-73
2021/03/28 07:23:47;;;;;;;6.25;1.70;;;8.40;61.60;;;;;;6219460;23;20450;-73
2021/03/28 07:26:40;;;;;;;7.50;1.60;;;8.50;61.60;;;;;;6246454;23;20000;-73
2021/03/28 07:29:29;;;;;;;6.60;1.50;;;8.40;61.70;;;;;;6246351;23;20075;-74
2021/03/28 07:32:09;;;;;;;7.27;1.87;;;8.30;61.70;;;;;;6214539;23;20059;-73
2021/03/28 07:35:04;;;;;;;4.93;1.43;;;8.40;61.60;;;;;;6236649;23;20423;-73
2021/03/28 07:37:44;;;;;;;6.70;1.83;;;8.30;61.80;;;;;;6220247;23;20091;-73
2021/03/28 07:40:27;;;;;;;5.07;1.77;;;8.30;61.80;;;;;;6219500;23;20008;-73
2021/03/28 07:43:05;;;;;;;6.30;1.63;;;8.30;61.80;;;;;;6219376;23;20039;-78
2021/03/28 07:45:40;;;;;;;7.25;1.45;;;8.30;62.00;;;;;;6246846;23;20419;-72
2021/03/28 07:48:27;;;;;;;4.75;1.50;;;8.30;62.20;;;;;;6219203;23;20446;-74
2021/03/28 07:51:12;;;;;;;5.43;1.43;;;8.20;62.40;;;;;;6219885;23;20004;-72
2021/03/28 07:54:09;;;;;;;13.00;1.83;;;8.30;62.50;;;;;;6246671;23;20071;-73
2021/03/28 07:57:01;;;;;;;3.85;1.08;;;8.30;62.40;;;;;;6219891;23;20004;-73
2021/03/28 07:59:45;;;;;;;5.53;1.52;;;8.30;62.50;;;;;;6185145;23;20016;-73
2021/03/28 08:02:36;;;;;;;4.03;1.48;;;8.30;62.70;;;;;;6219122;23;20007;-73
2021/03/28 08:05:25;;;;;;;4.13;1.27;;;8.40;62.00;;;;;;6219275;23;20419;-73
2021/03/28 08:07:58;;;;;;;6.57;1.87;;;8.40;61.10;;;;;;6220076;23;20363;-73
2021/03/28 08:10:36;;;;;;;5.75;1.65;;;8.50;61.00;;;;;;6219832;23;20012;-72
2021/03/28 08:13:37;;;;;;;6.90;2.00;;;8.50;61.50;;;;;;6219287;23;20004;-73
2021/03/28 08:16:14;;;;;;;8.18;1.90;;;8.50;61.90;;;;;;6258629;22;20024;-73
2021/03/28 08:19:08;;;;;;;7.07;1.57;;;8.60;62.90;;;;;;6235562;23;20371;-73
2021/03/28 08:22:13;;;;;;;3.50;1.40;;;8.70;61.30;;;;;;6223656;23;20010;-73
2021/03/28 08:25:16;;;;;;;6.20;1.33;;;8.80;60.30;;;;;;6219456;23;20008;-73
2021/03/28 08:27:59;;;;;;;9.00;2.00;;;8.70;59.60;;;;;;6246365;23;20000;-73
2021/03/28 08:31:02;;;;;;;9.20;1.67;;;8.80;59.40;;;;;;6244787;23;20016;-73
2021/03/28 08:34:00;;;;;;;4.63;1.33;;;8.90;60.60;;;;;;6246365;23;20415;-73
2021/03/28 08:36:47;;;;;;;6.57;1.63;;;8.90;60.50;;;;;;6227602;23;20028;-73
2021/03/28 08:39:50;;;;;;;6.93;1.90;;;9.00;59.10;;;;;;6244144;23;20011;-73
2021/03/28 08:42:34;;;;;;;3.65;1.27;;;9.10;58.80;;;;;;6245217;23;20117;-73
2021/03/28 08:45:26;;;;;;;7.67;1.60;;;9.10;58.50;;;;;;6244076;23;20012;-73
2021/03/28 08:48:11;;;;;;;5.93;1.60;;;9.20;59.30;;;;;;6244064;23;20008;-72
2021/03/28 08:50:41;;;;;;;7.40;1.83;;;9.30;59.40;;;;;;6244397;23;20095;-72
2021/03/28 08:53:25;;;;;;;4.93;1.40;;;9.40;59.10;;;;;;6245508;23;20008;-73
2021/03/28 08:56:24;;;;;;;7.32;1.58;;;9.40;59.00;;;;;;6244393;23;20007;-72
2021/03/28 08:59:14;;;;;;;5.32;1.20;;;9.50;58.80;;;;;;6244270;23;20066;-72
2021/03/28 09:02:01;;;;;;;4.22;1.33;;;9.50;57.50;;;;;;6244226;23;20062;-72
2021/03/28 09:04:58;;;;;;;4.65;1.00;;;9.70;57.10;;;;;;6244381;23;20451;-72
2021/03/28 09:07:45;;;;;;;4.72;1.55;;;9.70;56.90;;;;;;6244092;23;20095;-72
2021/03/28 09:10:24;;;;;;;3.70;1.30;;;9.80;58.10;;;;;;6243736;23;20292;-72
2021/03/28 09:13:22;;;;;;;3.55;1.08;;;9.80;58.70;;;;;;6244281;23;20027;-72
2021/03/28 09:16:11;;;;;;;5.03;1.55;;;9.90;57.20;;;;;;6244282;22;20082;-72
2021/03/28 09:18:53;;;;;;;3.20;1.08;;;10.00;57.90;;;;;;6269775;22;20402;-72
2021/03/28 09:22:01;;;;;;;11.88;1.50;;;10.10;57.30;;;;;;6245222;23;20079;-72
2021/03/28 09:24:48;;;;;;;2.83;1.23;;;10.20;58.40;;;;;;6243366;23;20137;-72
2021/03/28 09:27:13;;;;;;;6.13;1.60;;;10.30;57.80;;;;;;6245381;23;20007;-72
2021/03/28 09:30:07;;;;;;;3.70;1.13;;;10.40;55.50;;;;;;6245747;23;20000;-72
2021/03/28 09:33:09;;;;;;;7.00;1.10;;;10.50;55.50;;;;;;6245860;23;20408;-72
2021/03/28 09:36:05;;;;;;;3.13;1.25;;;10.60;54.10;;;;;;6242842;23;20081;-72
2021/03/28 09:38:52;;;;;;;2.72;1.33;;;10.70;54.50;;;;;;6245347;23;20011;-72
2021/03/28 09:41:21;;;;;;;5.68;1.10;;;10.80;53.70;;;;;;6243128;23;20015;-72
2021/03/28 09:44:19;;;;;;;6.75;1.48;;;10.80;54.10;;;;;;6245868;23;20004;-71
2021/03/28 09:46:51;;;;;;;2.90;0.80;;;10.90;53.70;;;;;;6227797;23;20008;-72
2021/03/28 09:49:28;;;;;;;5.65;1.17;;;11.00;53.60;;;;;;6243303;22;20000;-72
2021/03/28 09:52:20;;;;;;;3.55;1.00;;;11.00;52.90;;;;;;6245214;23;19999;-72
2021/03/28 09:55:23;;;;;;;4.50;1.30;;;11.00;52.40;;;;;;6244108;23;20024;-72
2021/03/28 09:58:34;;;;;;;4.13;0.93;;;11.10;53.50;;;;;;6245472;23;20004;-72
2021/03/28 10:01:37;;;;;;;3.55;0.90;;;11.20;52.90;;;;;;6269575;22;20422;-73
2021/03/28 10:04:21;;;;;;;6.20;1.17;;;11.30;52.50;;;;;;6243445;22;20000;-73
2021/03/28 10:06:59;;;;;;;4.65;1.00;;;11.30;53.30;;;;;;6245317;23;20004;-72
2021/03/28 10:09:40;;;;;;;4.53;1.00;;;11.40;52.90;;;;;;6244865;23;20074;-73
2021/03/28 10:12:33;;;;;;;2.42;0.90;;;11.50;53.00;;;;;;6268762;22;20019;-73
2021/03/28 10:15:19;;;;;;;4.28;1.05;;;11.50;52.40;;;;;;6245108;22;20335;-72
2021/03/28 10:18:18;;;;;;;3.33;0.80;;;11.60;52.00;;;;;;6243975;23;20019;-72
2021/03/28 10:21:05;;;;;;;5.43;0.80;;;11.60;50.00;;;;;;6245222;23;20505;-72
2021/03/28 10:23:48;;;;;;;2.65;0.60;;;11.60;50.40;;;;;;6245423;23;19997;-72
2021/03/28 10:27:04;;;;;;;5.13;1.05;;;11.60;50.40;;;;;;6244928;22;20073;-72
2021/03/28 10:30:09;;;;;;;3.72;0.70;;;11.70;50.10;;;;;;6152453;23;19998;-72
2021/03/28 10:33:14;;;;;;;3.67;1.02;;;11.70;49.00;;;;;;6105432;23;20474;-72
2021/03/28 10:36:21;;;;;;;4.65;0.98;;;11.80;48.30;;;;;;6239930;23;20009;-73
2021/03/28 10:39:15;;;;;;;5.50;0.77;;;11.80;47.70;;;;;;6243717;23;20012;-72
2021/03/28 10:42:09;;;;;;;5.90;0.75;;;11.90;49.10;;;;;;6243750;23;20011;-72
2021/03/28 10:44:53;;;;;;;4.45;0.82;;;11.90;49.30;;;;;;6182783;23;20012;-72
2021/03/28 10:47:37;;;;;;;4.60;0.70;;;12.00;49.30;;;;;;6243162;23;20094;-72
2021/03/28 10:50:40;;;;;;;5.43;0.95;;;12.10;48.70;;;;;;6245057;23;20451;-72
2021/03/28 10:53:27;;;;;;;2.90;0.52;;;12.20;48.90;;;;;;6242741;23;20093;-73
2021/03/28 10:56:35;;;;;;;3.75;0.70;;;12.30;47.00;;;;;;6270955;22;20004;-73
2021/03/28 10:59:28;;;;;;;3.92;0.98;;;12.30;46.10;;;;;;6245680;23;20004;-73
2021/03/28 11:02:21;;;;;;;5.28;0.85;;;12.40;46.60;;;;;;6246765;23;20078;-73
2021/03/28 11:05:29;;;;;;;4.50;0.77;;;12.40;45.70;;;;;;6245239;23;20013;-73
2021/03/28 11:08:19;;;;;;;5.38;0.90;;;12.50;47.40;;;;;;6204566;23;20012;-73
2021/03/28 11:11:04;;;;;;;3.17;0.80;;;12.60;46.50;;;;;;6271143;22;20008;-73
2021/03/28 11:13:54;;;;;;;2.72;0.95;;;12.60;46.50;;;;;;6244508;23;20000;-73
2021/03/28 11:17:11;;;;;;;2.42;0.73;;;12.60;45.10;;;;;;6244134;23;20031;-73
2021/03/28 11:20:14;;;;;;;4.30;0.80;;;12.60;46.40;;;;;;6153848;23;20018;-72
2021/03/28 11:22:48;;;;;;;4.10;0.82;;;12.70;45.50;;;;;;6153280;23;20459;-73
2021/03/28 11:25:16;;;;;;;5.20;1.00;;;12.80;45.30;;;;;;6226657;23;20016;-73
2021/03/28 11:27:54;;;;;;;2.80;1.08;;;12.80;44.60;;;;;;6269895;22;20055;-73
2021/03/28 11:30:38;;;;;;;4.15;1.08;;;12.80;44.30;;;;;;6245636;23;19996;-73
2021/03/28 11:33:26;;;;;;;2.78;0.70;;;12.80;45.30;;;;;;6246386;23;20063;-73
2021/03/28 11:35:54;;;;;;;4.45;0.70;;;12.80;45.80;;;;;;6246690;23;20007;-73
2021/03/28 11:38:20;;;;;;;4.28;0.90;;;12.90;45.00;;;;;;6244906;23;20008;-74
2021/03/28 11:41:06;;;;;;;5.10;1.30;;;12.90;44.60;;;;;;6246368;23;20000;-74
2021/03/28 11:43:40;;;;;;;5.32;0.90;;;12.90;44.50;;;;;;6246487;23;20415;-73
2021/03/28 11:46:05;;;;;;;4.45;1.30;;;13.00;45.40;;;;;;6244887;23;20375;-74
2021/03/28 11:48:41;;;;;;;3.97;1.05;;;13.00;45.20;;;;;;6245292;23;20000;-73
2021/03/28 11:51:41;;;;;;;2.28;0.70;;;13.10;44.40;;;;;;6241946;23;20046;-77
2021/03/28 11:54:09;;;;;;;4.97;1.30;;;13.10;43.80;;;;;;6244805;23;20435;-76
2021/03/28 11:56:54;;;;;;;5.45;1.00;;;13.10;44.50;;;;;;6269799;22;20004;-74
2021/03/28 11:59:22;;;;;;;4.68;1.17;;;13.10;44.40;;;;;;6245485;22;19996;-76
2021/03/28 12:02:18;;;;;;;4.10;1.00;;;13.20;44.40;;;;;;6246276;23;20043;-74
2021/03/28 12:04:47;;;;;;;4.53;1.10;;;13.30;44.00;;;;;;6244327;23;20098;-73
2021/03/28 12:07:18;;;;;;;5.47;0.90;;;13.30;44.30;;;;;;6243941;23;20004;-71
2021/03/28 12:10:04;;;;;;;3.70;0.80;;;13.40;44.60;;;;;;6270289;22;20004;-73
2021/03/28 12:12:42;;;;;;;5.82;1.08;;;13.50;44.60;;;;;;6229003;23;20047;-73
2021/03/28 12:15:44;;;;;;;2.55;0.68;;;13.70;44.60;;;;;;6244245;23;20031;-76
2021/03/28 12:18:16;;;;;;;4.13;1.00;;;13.80;42.60;;;;;;6269353;22;20008;-73
2021/03/28 12:20:42;;;;;;;;;;;13.90;43.20;;;;;;6270889;22;20043;-74
2021/03/28 12:23:22;;;;;;;4.78;0.90;;;14.10;44.00;;;;;;6269783;22;20315;-76
2021/03/28 12:26:01;;;;;;;3.70;0.90;;;14.30;42.80;;;;;;6270189;22;20008;-73
2021/03/28 12:28:34;;;;;;;4.97;0.80;;;14.40;41.80;;;;;;6269565;22;20056;-73
2021/03/28 12:31:25;;;;;;;4.28;0.90;;;14.50;42.40;;;;;;6246070;23;20047;-75
2021/03/28 12:33:55;;;;;;;3.30;0.90;;;14.60;41.80;;;;;;6246639;22;20046;-72
2021/03/28 12:36:21;;;;;;;2.58;0.73;;;14.90;42.10;;;;;;6244196;23;20000;-73
2021/03/28 12:38:56;;;;;;;4.10;0.95;;;15.00;40.90;;;;;;6244145;23;20457;-76
2021/03/28 12:41:29;;;;;;;5.88;1.10;;;15.10;39.90;;;;;;6242618;23;19996;-76
2021/03/28 12:43:56;;;;;;;4.65;1.00;;;15.30;40.70;;;;;;6245241;22;20024;-75
2021/03/28 12:46:27;;;;;;;4.40;0.90;;;15.40;40.50;;;;;;6243238;22;20078;-74
2021/03/28 12:49:33;;;;;;;3.30;0.80;;;15.60;39.60;;;;;;6244526;22;20004;-74
2021/03/28 12:52:11;;;;;;;6.57;0.90;;;15.70;38.70;;;;;;6244463;23;20135;-74
2021/03/28 12:54:56;;;;;;;3.65;0.93;;;15.90;38.60;;;;;;6245980;23;19996;-74
2021/03/28 12:57:32;;;;;;;3.13;0.70;;;16.10;38.00;;;;;;6243457;23;20008;-75
2021/03/28 13:00:11;;;;;;;5.82;1.30;;;16.20;38.40;;;;;;6244602;23;20150;-72
2021/03/28 13:02:38;;;;;;;6.65;1.08;;;16.30;38.30;;;;;;6245993;23;20001;-75
2021/03/28 13:05:20;;;;;;;3.50;0.82;;;16.30;37.70;;;;;;6244045;23;20024;-75
2021/03/28 13:07:51;;;;;;;6.63;1.20;;;16.60;37.90;;;;;;6244446;23;20319;-74
2021/03/28 13:10:38;;;;;;;4.60;0.93;;;16.80;37.40;;;;;;6245398;23;20004;-73
2021/03/28 13:13:15;;;;;;;5.97;0.90;;;17.20;37.30;;;;;;6244116;23;20079;-76
2021/03/28 13:15:45;;;;;;;2.88;0.80;;;17.50;35.60;;;;;;6243879;23;20020;-74
2021/03/28 13:18:23;;;;;;;3.10;0.98;;;17.90;35.20;;;;;;6243729;22;20001;-76
2021/03/28 13:20:53;;;;;;;5.68;1.00;;;18.30;34.70;;;;;;6245315;23;20430;-77
2021/03/28 13:23:19;;;;;;;2.05;0.80;;;18.70;34.30;;;;;;6243411;23;20004;-77
2021/03/28 13:25:45;;;;;;;4.63;1.10;;;19.00;33.20;;;;;;6269724;22;20118;-75
2021/03/28 13:28:13;;;;;;;5.10;0.95;;;19.50;33.40;;;;;;6268616;22;20008;-79
2021/03/28 13:30:46;;;;;;;4.60;1.15;;;20.00;33.10;;;;;;6245903;23;20059;-73
2021/03/28 13:33:20;;;;;;;56.95;32.17;;;20.50;32.40;;;;;;6245102;23;20437;-75
2021/03/28 13:35:49;;;;;;;29.73;21.20;;;20.80;30.80;;;;;;6245790;23;19996;-76
2021/03/28 13:38:33;;;;;;;6.07;3.65;;;21.00;31.20;;;;;;6244509;23;20000;-73
2021/03/28 13:41:18;;;;;;;6.88;1.52;;;21.80;30.50;;;;;;6244378;23;20023;-76
2021/03/28 13:43:45;;;;;;;4.13;1.15;;;21.70;29.70;;;;;;6244464;23;20002;-75
2021/03/28 13:46:13;;;;;;;3.22;1.35;;;22.00;29.60;;;;;;6243707;23;20003;-74
2021/03/28 13:48:40;;;;;;;2.25;0.80;;;22.30;29.50;;;;;;6244104;22;20027;-74
2021/03/28 13:51:21;;;;;;;3.08;1.15;;;22.90;28.90;;;;;;6243438;23;20142;-74
2021/03/28 13:53:52;;;;;;;7.57;0.98;;;23.30;28.40;;;;;;6244028;23;20497;-74
2021/03/28 13:56:21;;;;;;;3.97;1.10;;;23.50;28.70;;;;;;6244616;23;19992;-73
2021/03/28 13:58:58;;;;;;;5.57;1.20;;;23.50;27.90;;;;;;6244882;23;20396;-74
2021/03/28 14:01:30;;;;;;;3.25;0.90;;;23.30;28.40;;;;;;6244696;22;19992;-74
2021/03/28 14:04:28;;;;;;;3.25;0.93;;;23.30;28.80;;;;;;6245423;23;19996;-74
2021/03/28 14:07:23;;;;;;;2.45;0.88;;;23.10;28.10;;;;;;6243698;23;20050;-74
2021/03/28 14:10:05;;;;;;;3.38;0.85;;;23.30;28.00;;;;;;6242375;23;19996;-74
2021/03/28 14:12:51;;;;;;;5.43;0.82;;;23.20;27.90;;;;;;6244469;23;20023;-74
2021/03/28 14:15:36;;;;;;;3.97;1.25;;;22.90;28.00;;;;;;6242875;23;20094;-73
2021/03/28 14:18:11;;;;;;;5.68;1.30;;;23.00;28.30;;;;;;6243675;22;20417;-74
2021/03/28 14:20:45;;;;;;;4.22;0.88;;;22.70;28.00;;;;;;6245119;23;20000;-73
2021/03/28 14:23:11;;;;;;;3.95;0.88;;;22.60;28.80;;;;;;6243609;23;20083;-73
2021/03/28 14:25:55;;;;;;;4.28;1.10;;;22.30;29.00;;;;;;6244604;23;20032;-73
2021/03/28 14:28:27;;;;;;;2.88;0.95;;;21.80;29.30;;;;;;6242991;23;20024;-74